Time;durP1;ratioP1;P1;durP2;ratioP2;P2;SDS_P1;SDS_P2;PMS_P1;PMS_P2;Temp;Humidity;BMP_temperature;BMP_pressure;BME280_temperature;BME280_humidity;BME280_pressure;Samples;Min_cycle;Max_cycle;Signal;HPM_P1;HPM_P2
2023/08/28 00:00:42;;;;;;;2.50;1.60;;;16.60;43.10;;;;;;4998668;28;20187;-88
2023/08/28 00:03:09;;;;;;;4.30;1.60;;;16.60;45.20;;;;;;4998371;28;20172;-89
2023/08/28 00:05:35;;;;;;;5.13;1.93;;;16.50;45.80;;;;;;4997549;28;20181;-88
2023/08/28 00:08:02;;;;;;;4.67;1.80;;;16.40;47.20;;;;;;5015768;28;20168;-89
2023/08/28 00:10:28;;;;;;;3.30;1.83;;;16.50;48.30;;;;;;4997620;28;20193;-89
2023/08/28 00:12:53;;;;;;;2.97;1.57;;;16.50;46.60;;;;;;4998748;28;20185;-90
2023/08/28 00:15:19;;;;;;;2.60;1.67;;;16.50;47.30;;;;;;4999088;28;20226;-89
2023/08/28 00:17:46;;;;;;;4.10;2.10;;;16.50;46.90;;;;;;4999492;28;20218;-88
2023/08/28 00:20:12;;;;;;;4.70;2.27;;;16.60;45.50;;;;;;4998881;28;20180;-90
2023/08/28 00:22:40;;;;;;;3.17;1.60;;;16.50;47.30;;;;;;5014931;28;20192;-89
2023/08/28 00:25:08;;;;;;;6.67;1.93;;;16.50;47.10;;;;;;5009790;28;20707;-88
2023/08/28 00:27:35;;;;;;;2.40;1.70;;;16.60;45.50;;;;;;5002272;28;20163;-88
2023/08/28 00:30:03;;;;;;;3.60;1.67;;;16.60;45.00;;;;;;5000220;28;20177;-87
2023/08/28 00:32:30;;;;;;;4.07;1.93;;;16.50;47.90;;;;;;4998600;28;20179;-87
2023/08/28 00:34:56;;;;;;;2.57;1.93;;;16.50;47.60;;;;;;4995889;28;20259;-87
2023/08/28 00:37:24;;;;;;;5.50;2.00;;;16.50;49.10;;;;;;4997762;28;20182;-87
2023/08/28 00:39:51;;;;;;;5.37;2.33;;;16.50;50.10;;;;;;4993309;28;20220;-87
2023/08/28 00:42:16;;;;;;;5.43;2.13;;;16.50;49.70;;;;;;4996767;28;20191;-87
2023/08/28 00:44:42;;;;;;;3.47;2.00;;;16.40;49.30;;;;;;4996853;28;20167;-87
2023/08/28 00:47:10;;;;;;;4.97;1.93;;;16.40;50.70;;;;;;4996938;28;20197;-87
2023/08/28 00:49:36;;;;;;;4.17;2.20;;;16.30;52.80;;;;;;4995519;28;20176;-88
2023/08/28 00:52:02;;;;;;;5.17;2.00;;;16.30;54.90;;;;;;4999491;28;20172;-88
2023/08/28 00:54:30;;;;;;;5.03;2.03;;;16.10;56.80;;;;;;5011040;28;20214;-88
2023/08/28 00:56:57;;;;;;;3.90;1.90;;;16.20;57.10;;;;;;5018388;28;20270;-86
2023/08/28 00:59:23;;;;;;;3.23;1.60;;;16.30;57.70;;;;;;5004930;28;20209;-89
2023/08/28 01:01:49;;;;;;;4.30;2.10;;;16.40;55.20;;;;;;4997720;28;20650;-89
2023/08/28 01:04:15;;;;;;;5.47;2.27;;;16.40;54.40;;;;;;4998281;28;20267;-88
2023/08/28 01:06:48;;;;;;;4.50;2.00;;;16.40;52.60;;;;;;4997808;28;20183;-88
2023/08/28 01:09:39;;;;;;;2.97;2.13;;;16.50;51.70;;;;;;4996423;28;20166;-87
2023/08/28 01:12:23;;;;;;;3.43;2.20;;;16.40;54.30;;;;;;4997262;28;20182;-87
2023/08/28 01:15:07;;;;;;;6.43;2.30;;;16.40;54.90;;;;;;4996510;28;20297;-89
2023/08/28 01:17:35;;;;;;;4.87;2.17;;;16.30;56.80;;;;;;4997027;28;20557;-88
2023/08/28 01:20:04;;;;;;;4.60;1.90;;;16.30;57.70;;;;;;4996742;28;20169;-88
2023/08/28 01:22:39;;;;;;;3.73;1.90;;;16.40;57.30;;;;;;4999759;28;20174;-86
2023/08/28 01:25:09;;;;;;;4.13;2.10;;;16.40;57.90;;;;;;5011280;28;20173;-88
2023/08/28 01:27:39;;;;;;;3.83;1.80;;;16.40;57.20;;;;;;4997493;28;20185;-87
2023/08/28 01:30:06;;;;;;;3.87;2.40;;;16.50;56.90;;;;;;5014270;28;20176;-88
2023/08/28 01:32:32;;;;;;;4.13;2.13;;;16.40;56.20;;;;;;4996601;28;20181;-88
2023/08/28 01:34:58;;;;;;;3.07;1.87;;;16.40;57.20;;;;;;4997477;28;20211;-88
2023/08/28 01:37:30;;;;;;;4.77;2.00;;;16.30;58.00;;;;;;5013555;28;20230;-89
2023/08/28 01:40:00;;;;;;;3.23;2.17;;;16.20;60.60;;;;;;5017804;28;20173;-89
2023/08/28 01:42:28;;;;;;;4.80;2.33;;;16.20;62.70;;;;;;5018811;28;20170;-89
2023/08/28 01:44:55;;;;;;;5.57;2.57;;;16.10;64.00;;;;;;5039667;28;20187;-89
2023/08/28 01:47:23;;;;;;;3.03;2.10;;;16.00;66.50;;;;;;5006017;28;20256;-88
2023/08/28 01:49:53;;;;;;;5.90;2.30;;;15.90;68.40;;;;;;5003742;28;20175;-89
2023/08/28 01:52:22;;;;;;;4.40;2.50;;;15.80;70.90;;;;;;5001237;28;20232;-89
2023/08/28 01:54:47;;;;;;;4.93;2.20;;;15.80;73.40;;;;;;5000671;28;20182;-89
2023/08/28 01:57:13;;;;;;;4.90;2.53;;;15.70;76.10;;;;;;5001090;28;20190;-88
2023/08/28 01:59:39;;;;;;;6.10;2.70;;;15.70;79.30;;;;;;5001202;28;20268;-90
2023/08/28 02:02:04;;;;;;;4.80;2.90;;;15.60;82.30;;;;;;5000973;28;20516;-87
2023/08/28 02:04:30;;;;;;;3.70;2.83;;;15.60;83.10;;;;;;5000539;28;20478;-89
2023/08/28 02:06:56;;;;;;;4.63;2.50;;;15.60;85.00;;;;;;5001149;28;20198;-89
2023/08/28 02:09:21;;;;;;;4.53;2.40;;;15.60;85.80;;;;;;5020558;28;20602;-90
2023/08/28 02:11:47;;;;;;;4.67;2.40;;;15.50;86.80;;;;;;5002478;28;20639;-89
2023/08/28 02:14:13;;;;;;;4.73;2.70;;;15.50;89.90;;;;;;5000861;28;20182;-90
2023/08/28 02:16:38;;;;;;;3.30;2.57;;;15.60;88.30;;;;;;5000664;28;20222;-89
2023/08/28 02:19:05;;;;;;;4.53;2.53;;;15.70;87.70;;;;;;5018727;28;20168;-88
2023/08/28 02:21:31;;;;;;;4.37;2.53;;;15.70;86.40;;;;;;5018204;28;20273;-88
2023/08/28 02:23:57;;;;;;;5.00;2.57;;;15.70;86.80;;;;;;5000642;28;20213;-88
2023/08/28 02:26:24;;;;;;;4.10;2.50;;;15.70;88.10;;;;;;5000943;28;20195;-88
2023/08/28 02:28:49;;;;;;;6.20;2.73;;;15.70;87.70;;;;;;5000291;28;20227;-88
2023/08/28 02:31:15;;;;;;;4.30;2.63;;;15.70;87.90;;;;;;5000539;28;20271;-88
2023/08/28 02:33:41;;;;;;;6.00;2.73;;;15.80;87.10;;;;;;4999956;28;20167;-88
2023/08/28 02:36:07;;;;;;;4.30;2.60;;;15.70;85.00;;;;;;4999699;28;20676;-88
2023/08/28 02:38:33;;;;;;;4.13;2.90;;;15.70;83.70;;;;;;4999722;28;20184;-87
2023/08/28 02:41:12;;;;;;;4.67;2.80;;;15.60;85.70;;;;;;4999420;28;20180;-88
2023/08/28 02:43:38;;;;;;;4.03;2.70;;;15.60;87.90;;;;;;4999419;28;20179;-87
2023/08/28 02:46:04;;;;;;;5.47;2.80;;;15.60;88.30;;;;;;4998016;28;20200;-88
2023/08/28 02:48:30;;;;;;;4.40;2.67;;;15.60;90.10;;;;;;4999321;28;20211;-88
2023/08/28 02:50:56;;;;;;;5.93;2.73;;;15.70;91.00;;;;;;4999922;28;20672;-88
2023/08/28 02:53:21;;;;;;;4.30;2.70;;;15.80;89.90;;;;;;4999323;28;20271;-89
2023/08/28 02:56:18;;;;;;;4.57;2.87;;;15.70;88.70;;;;;;4999744;28;20621;-89
2023/08/28 02:58:44;;;;;;;4.67;3.10;;;15.70;89.80;;;;;;4999927;28;20274;-89
2023/08/28 03:01:10;;;;;;;4.73;2.93;;;15.70;90.10;;;;;;5005618;28;20184;-88
2023/08/28 03:03:36;;;;;;;5.50;2.87;;;15.80;88.90;;;;;;5001673;28;20192;-89
2023/08/28 03:06:01;;;;;;;6.97;3.37;;;15.80;89.20;;;;;;4999045;28;20179;-89
2023/08/28 03:08:30;;;;;;;3.97;2.60;;;15.80;87.80;;;;;;4997326;28;20184;-88
2023/08/28 03:10:56;;;;;;;4.50;2.83;;;15.80;89.00;;;;;;4999206;28;20654;-88
2023/08/28 03:13:21;;;;;;;5.13;2.33;;;15.70;90.00;;;;;;4998889;28;20184;-89
2023/08/28 03:15:47;;;;;;;5.73;2.80;;;15.70;90.60;;;;;;4998645;28;20694;-89
2023/08/28 03:18:13;;;;;;;6.43;3.17;;;15.60;91.70;;;;;;4999169;28;20187;-89
2023/08/28 03:20:39;;;;;;;4.33;3.20;;;15.50;92.40;;;;;;5000406;28;20638;-90
2023/08/28 03:23:04;;;;;;;7.07;3.13;;;15.60;92.90;;;;;;4999418;28;20531;-90
2023/08/28 03:25:30;;;;;;;4.60;3.13;;;15.60;92.90;;;;;;4999126;28;20224;-90
2023/08/28 03:27:56;;;;;;;6.40;3.57;;;15.50;93.10;;;;;;4998394;28;20638;-89
2023/08/28 03:30:22;;;;;;;8.23;3.60;;;15.60;92.90;;;;;;4998692;28;20174;-89
2023/08/28 03:32:47;;;;;;;7.10;3.57;;;15.50;93.30;;;;;;4998937;28;20536;-89
2023/08/28 03:35:13;;;;;;;6.23;3.67;;;15.40;94.30;;;;;;4999042;28;20569;-89
2023/08/28 03:37:39;;;;;;;6.33;3.37;;;15.30;95.60;;;;;;4998166;28;20263;-89
2023/08/28 03:40:05;;;;;;;5.93;3.63;;;15.30;97.10;;;;;;4997291;28;20221;-88
2023/08/28 03:42:31;;;;;;;9.17;4.07;;;15.20;98.20;;;;;;4996156;28;20171;-88
2023/08/28 03:44:56;;;;;;;8.67;4.23;;;15.30;99.50;;;;;;4997008;28;20658;-89
2023/08/28 03:47:22;;;;;;;7.90;4.07;;;15.20;99.10;;;;;;4997339;28;20197;-87
2023/08/28 03:49:48;;;;;;;6.10;4.33;;;15.20;99.30;;;;;;4997696;28;20213;-87
2023/08/28 03:52:15;;;;;;;6.77;4.10;;;15.30;99.00;;;;;;4998225;28;20584;-89
2023/08/28 03:54:41;;;;;;;7.57;4.43;;;15.20;99.80;;;;;;4998693;28;20170;-88
2023/08/28 03:57:06;;;;;;;6.57;4.40;;;15.20;99.90;;;;;;4998548;28;20313;-88
2023/08/28 03:59:32;;;;;;;8.13;4.50;;;15.20;99.90;;;;;;4997377;28;20642;-89
2023/08/28 04:01:58;;;;;;;10.00;4.70;;;15.30;99.90;;;;;;4997443;28;20175;-89
2023/08/28 04:04:23;;;;;;;9.37;4.33;;;15.30;99.90;;;;;;4999471;28;20170;-89
2023/08/28 04:06:49;;;;;;;7.63;4.40;;;15.30;99.90;;;;;;4996910;28;20175;-89
2023/08/28 04:09:15;;;;;;;9.23;4.83;;;15.30;99.90;;;;;;4998070;28;20185;-89
2023/08/28 04:11:42;;;;;;;8.43;4.10;;;15.30;99.90;;;;;;4998408;28;20721;-89
2023/08/28 04:14:08;;;;;;;8.50;4.23;;;15.30;99.90;;;;;;4998252;28;20182;-89
2023/08/28 04:16:34;;;;;;;6.77;4.53;;;15.40;99.90;;;;;;4998053;28;20308;-89
2023/08/28 04:19:00;;;;;;;8.93;4.43;;;15.30;99.90;;;;;;4998459;28;20170;-89
2023/08/28 04:21:25;;;;;;;5.50;4.20;;;15.40;99.90;;;;;;4998295;28;20340;-88
2023/08/28 04:23:51;;;;;;;8.10;4.40;;;15.60;99.90;;;;;;4997091;28;20198;-89
2023/08/28 04:26:17;;;;;;;14.70;4.93;;;15.60;99.90;;;;;;5014460;28;20277;-89
2023/08/28 04:28:42;;;;;;;7.87;4.70;;;15.70;99.10;;;;;;4996907;28;20178;-89
2023/08/28 04:31:09;;;;;;;7.17;4.53;;;15.80;98.50;;;;;;4998200;28;20653;-89
2023/08/28 04:33:36;;;;;;;6.17;4.57;;;15.90;98.10;;;;;;4998845;28;20515;-90
2023/08/28 04:36:01;;;;;;;7.90;5.07;;;15.90;97.30;;;;;;5004435;28;20224;-86
2023/08/28 04:38:28;;;;;;;8.20;4.20;;;15.90;97.00;;;;;;5018928;28;20178;-88
2023/08/28 04:40:56;;;;;;;7.10;5.00;;;16.00;95.70;;;;;;5016996;28;20190;-87
2023/08/28 04:43:21;;;;;;;8.47;5.20;;;16.00;95.40;;;;;;4999985;28;20536;-89
2023/08/28 04:45:50;;;;;;;6.60;4.50;;;16.00;95.40;;;;;;4999348;28;20198;-89
2023/08/28 04:48:17;;;;;;;10.47;5.10;;;16.00;94.10;;;;;;4998476;28;20192;-89
2023/08/28 04:50:43;;;;;;;6.13;5.00;;;16.10;92.80;;;;;;4997249;28;20629;-88
2023/08/28 04:53:09;;;;;;;8.80;5.83;;;16.00;92.90;;;;;;4999521;28;20186;-88
2023/08/28 04:55:37;;;;;;;6.40;5.17;;;16.00;92.50;;;;;;4999439;28;20198;-88
2023/08/28 04:58:03;;;;;;;10.10;6.00;;;15.80;94.10;;;;;;4998210;28;20189;-89
2023/08/28 05:00:29;;;;;;;8.13;5.50;;;15.60;96.20;;;;;;4996616;28;20193;-88
2023/08/28 05:02:55;;;;;;;10.70;6.07;;;15.60;98.50;;;;;;4998046;28;20181;-89
2023/08/28 05:05:20;;;;;;;9.93;5.93;;;15.60;98.60;;;;;;4998500;28;20198;-89
2023/08/28 05:07:46;;;;;;;9.17;6.03;;;15.60;98.80;;;;;;4997642;28;20170;-89
2023/08/28 05:10:12;;;;;;;10.80;6.40;;;15.60;99.00;;;;;;4996882;28;20183;-89
2023/08/28 05:12:37;;;;;;;8.60;5.93;;;15.60;99.90;;;;;;4997864;28;20181;-88
2023/08/28 05:15:03;;;;;;;9.50;6.13;;;15.70;99.90;;;;;;4996732;28;20552;-88
2023/08/28 05:17:29;;;;;;;10.47;5.53;;;15.60;99.90;;;;;;5008237;28;20295;-86
2023/08/28 05:19:54;;;;;;;8.27;5.90;;;15.50;99.90;;;;;;5018657;28;20250;-88
2023/08/28 05:22:20;;;;;;;7.70;6.07;;;15.40;99.90;;;;;;5016403;28;20158;-87
2023/08/28 05:24:46;;;;;;;10.70;6.03;;;15.40;99.90;;;;;;5019241;28;20183;-87
2023/08/28 05:27:12;;;;;;;10.47;6.30;;;15.40;99.90;;;;;;5010845;28;20637;-89
2023/08/28 05:29:40;;;;;;;12.93;5.93;;;15.40;99.90;;;;;;4998304;28;20272;-89
2023/08/28 05:32:06;;;;;;;9.27;6.53;;;15.30;99.90;;;;;;5016255;28;20158;-89
2023/08/28 05:34:32;;;;;;;12.17;6.63;;;15.30;99.90;;;;;;4996689;28;20642;-89
2023/08/28 05:36:58;;;;;;;10.00;6.63;;;15.40;99.90;;;;;;4997837;28;20210;-89
2023/08/28 05:39:23;;;;;;;7.80;6.33;;;15.40;99.90;;;;;;4997071;28;20194;-89
2023/08/28 05:41:49;;;;;;;10.80;6.20;;;15.50;99.90;;;;;;4997550;28;20182;-88
2023/08/28 05:44:15;;;;;;;9.83;6.27;;;15.50;99.90;;;;;;4996090;28;20174;-89
2023/08/28 05:46:40;;;;;;;9.87;6.27;;;15.60;99.90;;;;;;4997167;28;20194;-87
2023/08/28 05:49:07;;;;;;;8.30;6.60;;;15.70;99.90;;;;;;4996091;28;20612;-86
2023/08/28 05:51:33;;;;;;;7.87;6.50;;;15.70;99.90;;;;;;4996384;28;20178;-87
2023/08/28 05:53:59;;;;;;;11.23;6.53;;;15.80;99.90;;;;;;4996264;28;20167;-88
2023/08/28 05:56:27;;;;;;;8.47;6.10;;;15.70;99.90;;;;;;4998287;28;20211;-87
2023/08/28 05:58:53;;;;;;;8.77;5.47;;;15.70;99.90;;;;;;5001885;28;20282;-88
2023/08/28 06:01:19;;;;;;;11.27;6.00;;;15.80;99.90;;;;;;5019772;28;20215;-87
2023/08/28 06:03:44;;;;;;;8.87;6.50;;;15.70;99.90;;;;;;4999103;28;20171;-87
2023/08/28 06:06:11;;;;;;;12.53;6.30;;;15.60;99.90;;;;;;4996889;28;20174;-88
2023/08/28 06:08:37;;;;;;;10.30;5.67;;;15.70;99.90;;;;;;5000908;28;20635;-87
2023/08/28 06:11:03;;;;;;;8.77;5.87;;;15.70;99.90;;;;;;4997771;28;20284;-88
2023/08/28 06:13:35;;;;;;;9.33;5.87;;;15.60;99.90;;;;;;5015530;28;20170;-87
2023/08/28 06:16:02;;;;;;;8.60;6.10;;;15.60;99.90;;;;;;5022998;28;20254;-88
2023/08/28 06:18:28;;;;;;;9.07;6.30;;;15.70;99.90;;;;;;4997314;28;20183;-89
2023/08/28 06:20:54;;;;;;;7.97;6.00;;;15.60;99.90;;;;;;5013746;28;20195;-86
2023/08/28 06:23:20;;;;;;;12.47;6.43;;;15.60;99.90;;;;;;4996381;28;20259;-86
2023/08/28 06:25:47;;;;;;;9.80;6.57;;;15.60;99.90;;;;;;4996404;28;20209;-87
2023/08/28 06:28:14;;;;;;;8.73;6.43;;;15.70;99.90;;;;;;4997031;28;20634;-88
2023/08/28 06:30:41;;;;;;;9.57;6.33;;;15.70;99.90;;;;;;4999031;28;20184;-86
2023/08/28 06:33:07;;;;;;;8.17;6.33;;;15.70;99.90;;;;;;5000259;28;20657;-87
2023/08/28 06:35:32;;;;;;;11.37;7.03;;;15.70;99.90;;;;;;5022212;28;20210;-87
2023/08/28 06:37:58;;;;;;;10.37;7.50;;;15.80;99.90;;;;;;4981379;28;20676;-87
2023/08/28 06:40:24;;;;;;;8.50;6.83;;;15.80;99.90;;;;;;4987893;28;20196;-85
2023/08/28 06:42:50;;;;;;;10.40;7.30;;;15.80;99.90;;;;;;5004542;28;20182;-90
2023/08/28 06:45:16;;;;;;;10.17;7.53;;;15.80;99.10;;;;;;5007975;28;20216;-89
2023/08/28 06:47:42;;;;;;;8.30;6.83;;;15.70;99.80;;;;;;4995286;28;20214;-89
2023/08/28 06:50:08;;;;;;;9.13;8.23;;;15.90;97.30;;;;;;4989244;28;20636;-91
2023/08/28 06:52:35;;;;;;;11.77;7.77;;;16.00;96.70;;;;;;4986541;28;20198;-93
2023/08/28 06:55:02;;;;;;;10.37;7.70;;;15.90;96.60;;;;;;4982630;28;20214;-89
2023/08/28 06:57:28;;;;;;;9.83;8.83;;;15.80;97.80;;;;;;4980946;28;20276;-89
2023/08/28 06:59:54;;;;;;;9.90;7.83;;;15.90;98.40;;;;;;4985536;28;20182;-89
2023/08/28 07:02:20;;;;;;;9.80;7.60;;;15.80;98.50;;;;;;4991304;28;20220;-89
2023/08/28 07:04:46;;;;;;;15.07;8.40;;;15.70;99.90;;;;;;4994365;28;20183;-90
2023/08/28 07:07:18;;;;;;;8.77;7.90;;;15.80;99.90;;;;;;4985981;28;20175;-88
2023/08/28 07:09:45;;;;;;;10.80;7.97;;;15.90;99.90;;;;;;4997065;28;20205;-89
2023/08/28 07:12:11;;;;;;;11.80;6.93;;;16.00;99.90;;;;;;4984495;28;20234;-89
2023/08/28 07:14:37;;;;;;;8.70;7.17;;;16.10;99.70;;;;;;4986725;28;20278;-88
2023/08/28 07:17:03;;;;;;;11.27;6.87;;;16.30;98.70;;;;;;5014473;28;20218;-88
2023/08/28 07:19:29;;;;;;;9.53;6.90;;;16.40;97.20;;;;;;5000351;28;20533;-89
2023/08/28 07:21:55;;;;;;;9.80;6.70;;;16.60;94.20;;;;;;5005126;28;20246;-89
2023/08/28 07:24:21;;;;;;;10.47;6.77;;;16.70;91.70;;;;;;4999973;28;20183;-89
2023/08/28 07:26:46;;;;;;;8.80;5.93;;;16.90;87.50;;;;;;4999122;28;20277;-89
2023/08/28 07:29:12;;;;;;;8.23;6.73;;;17.00;83.70;;;;;;5000830;28;20245;-89
2023/08/28 07:31:38;;;;;;;9.87;5.97;;;17.00;81.80;;;;;;4999980;28;20180;-87
2023/08/28 07:34:05;;;;;;;9.57;6.23;;;17.20;79.80;;;;;;4999762;28;20562;-90
2023/08/28 07:36:31;;;;;;;9.17;5.97;;;17.50;70.30;;;;;;4999556;28;20677;-90
2023/08/28 07:38:57;;;;;;;9.57;5.47;;;17.60;64.20;;;;;;4998831;28;20180;-88
2023/08/28 07:41:23;;;;;;;18.40;15.33;;;17.70;59.50;;;;;;4999405;28;20182;-90
2023/08/28 07:43:49;;;;;;;11.07;8.20;;;17.80;49.70;;;;;;5017617;28;20260;-91
2023/08/28 07:46:15;;;;;;;9.07;5.60;;;17.90;46.90;;;;;;5000475;28;20296;-91
2023/08/28 07:48:41;;;;;;;8.80;4.87;;;17.90;39.80;;;;;;4999840;28;20185;-89
2023/08/28 07:51:07;;;;;;;8.63;4.87;;;18.00;33.60;;;;;;5002482;28;20201;-90
2023/08/28 07:53:33;;;;;;;7.30;4.70;;;17.90;34.90;;;;;;5012231;28;20289;-87
2023/08/28 07:56:00;;;;;;;8.17;4.20;;;17.90;39.10;;;;;;5003761;28;20671;-90
2023/08/28 07:58:27;;;;;;;11.70;4.77;;;18.00;38.60;;;;;;4999625;28;20274;-90
2023/08/28 08:00:53;;;;;;;17.20;14.17;;;18.10;32.80;;;;;;4998964;28;20179;-88
2023/08/28 08:03:19;;;;;;;7.37;4.83;;;18.40;30.30;;;;;;4999318;28;20627;-90
2023/08/28 08:05:45;;;;;;;5.93;3.03;;;18.40;26.50;;;;;;4999153;28;20180;-88
2023/08/28 08:08:11;;;;;;;7.33;3.40;;;18.40;20.10;;;;;;4999727;28;20253;-89
2023/08/28 08:10:37;;;;;;;5.37;3.30;;;18.30;21.60;;;;;;4998113;28;20240;-88
2023/08/28 08:13:03;;;;;;;6.73;3.20;;;18.50;11.10;;;;;;4999500;28;20178;-91
2023/08/28 08:15:28;;;;;;;5.50;2.57;;;18.60;8.30;;;;;;4982773;28;20217;-90
2023/08/28 08:17:54;;;;;;;7.07;2.80;;;18.70;5.60;;;;;;4998321;28;20725;-89
2023/08/28 08:20:20;;;;;;;6.27;2.47;;;18.80;1.00;;;;;;5008705;28;20164;-88
2023/08/28 08:22:46;;;;;;;6.03;2.63;;;18.90;1.00;;;;;;5011456;28;20180;-86
2023/08/28 08:25:12;;;;;;;5.43;2.80;;;19.00;1.00;;;;;;5004602;28;20176;-88
2023/08/28 08:27:39;;;;;;;6.90;3.20;;;19.10;1.00;;;;;;4999494;28;20170;-89
2023/08/28 08:30:07;;;;;;;5.30;2.63;;;19.20;1.00;;;;;;5017499;28;20527;-88
2023/08/28 08:32:35;;;;;;;4.57;2.23;;;19.30;1.00;;;;;;4998687;28;20193;-88
2023/08/28 08:35:05;;;;;;;5.83;2.43;;;19.30;1.00;;;;;;4998388;28;20192;-88
2023/08/28 08:37:31;;;;;;;3.87;2.07;;;19.40;1.00;;;;;;4999627;28;20182;-89
2023/08/28 08:39:58;;;;;;;4.23;1.80;;;19.40;1.00;;;;;;4998775;28;20202;-88
2023/08/28 08:42:23;;;;;;;7.40;2.67;;;19.50;1.00;;;;;;4998613;28;20167;-89
2023/08/28 08:44:49;;;;;;;4.63;2.27;;;19.60;1.00;;;;;;4998804;28;20541;-89
2023/08/28 08:47:16;;;;;;;3.77;1.90;;;19.70;1.00;;;;;;4998994;28;20291;-90
2023/08/28 08:49:43;;;;;;;4.27;2.10;;;19.80;1.00;;;;;;4999837;28;20274;-88
2023/08/28 08:52:12;;;;;;;7.00;1.70;;;19.70;1.00;;;;;;5002622;28;20262;-89
2023/08/28 08:54:40;;;;;;;5.20;2.00;;;19.70;1.00;;;;;;5002956;28;20217;-91
2023/08/28 08:57:15;;;;;;;3.43;2.20;;;19.80;1.00;;;;;;5008969;28;20297;-88
2023/08/28 08:59:42;;;;;;;3.83;1.83;;;19.60;1.00;;;;;;5019309;28;20181;-89
2023/08/28 09:02:11;;;;;;;6.97;2.00;;;19.80;1.00;;;;;;5001853;28;20186;-88
2023/08/28 09:04:40;;;;;;;4.70;2.10;;;19.80;1.00;;;;;;5019301;28;20236;-87
2023/08/28 09:07:07;;;;;;;4.87;2.10;;;19.90;1.00;;;;;;5010144;28;20181;-90
2023/08/28 09:09:33;;;;;;;4.67;2.00;;;19.90;1.00;;;;;;4988850;28;20228;-90
2023/08/28 09:11:59;;;;;;;3.67;1.60;;;20.00;1.00;;;;;;4998836;28;20193;-93
2023/08/28 09:14:26;;;;;;;3.93;1.47;;;20.10;1.00;;;;;;4999471;28;20225;-88
2023/08/28 09:16:52;;;;;;;4.43;1.53;;;20.20;1.00;;;;;;5000981;28;20258;-86
2023/08/28 09:19:18;;;;;;;3.40;1.50;;;20.10;1.00;;;;;;4999577;28;20257;-85
2023/08/28 09:21:48;;;;;;;3.57;1.53;;;19.70;1.00;;;;;;5015977;28;20205;-90
2023/08/28 09:24:22;;;;;;;2.30;1.50;;;19.90;1.00;;;;;;5000575;28;20184;-90
2023/08/28 09:26:54;;;;;;;5.73;1.67;;;20.00;1.00;;;;;;5005686;28;20249;-88
2023/08/28 09:29:22;;;;;;;5.73;1.80;;;20.20;1.00;;;;;;5009596;28;20188;-88
2023/08/28 09:31:51;;;;;;;4.47;1.77;;;20.30;1.00;;;;;;5020119;28;20188;-88
2023/08/28 09:34:20;;;;;;;2.00;1.30;;;20.40;1.00;;;;;;5016677;28;20178;-88
2023/08/28 09:37:11;;;;;;;6.13;1.77;;;20.40;1.00;;;;;;5016893;28;20220;-88
2023/08/28 09:39:55;;;;;;;2.93;1.20;;;20.50;1.00;;;;;;5002049;28;20166;-90
2023/08/28 09:42:27;;;;;;;2.90;1.30;;;20.30;1.00;;;;;;5004927;28;20173;-92
2023/08/28 09:44:53;;;;;;;3.40;1.40;;;20.10;1.00;;;;;;4999349;28;20184;-91
2023/08/28 09:47:22;;;;;;;4.00;1.30;;;20.10;1.00;;;;;;4999058;28;20208;-91
2023/08/28 09:49:53;;;;;;;5.27;1.50;;;20.00;1.00;;;;;;5023491;28;20180;-91
2023/08/28 09:52:28;;;;;;;4.23;1.70;;;20.20;1.00;;;;;;5013040;28;20178;-89
2023/08/28 09:55:04;;;;;;;3.03;1.40;;;20.30;1.00;;;;;;5015784;28;20181;-88
2023/08/28 09:57:31;;;;;;;5.43;1.80;;;20.50;1.00;;;;;;5008347;28;20181;-91
2023/08/28 10:00:00;;;;;;;3.07;1.53;;;20.50;1.00;;;;;;5003491;28;20178;-88
2023/08/28 10:02:27;;;;;;;3.43;1.50;;;20.50;1.00;;;;;;5008639;28;20198;-92
2023/08/28 10:04:56;;;;;;;3.83;1.40;;;20.40;1.00;;;;;;5016642;28;20185;-92
2023/08/28 10:07:24;;;;;;;2.83;1.67;;;20.60;1.00;;;;;;5011027;28;20190;-89
2023/08/28 10:10:03;;;;;;;2.83;1.20;;;20.70;1.00;;;;;;5022086;28;20199;-88
2023/08/28 10:12:31;;;;;;;2.50;1.00;;;20.60;1.00;;;;;;4989955;28;20185;-92
2023/08/28 10:15:00;;;;;;;1.70;0.90;;;20.30;1.00;;;;;;5005667;28;20212;-90
2023/08/28 10:17:29;;;;;;;4.50;1.37;;;20.30;1.00;;;;;;5010465;28;20182;-88
2023/08/28 10:19:58;;;;;;;3.23;1.43;;;20.60;1.00;;;;;;5006509;28;20273;-92
2023/08/28 10:22:25;;;;;;;3.33;1.40;;;20.70;1.00;;;;;;5008318;28;20175;-91
2023/08/28 10:24:53;;;;;;;3.87;1.50;;;20.70;1.00;;;;;;5003229;28;20175;-88
2023/08/28 10:27:20;;;;;;;2.03;1.10;;;21.00;1.00;;;;;;5003215;28;20177;-88
2023/08/28 10:29:49;;;;;;;3.13;1.27;;;21.00;1.00;;;;;;5003921;28;20173;-90
2023/08/28 10:32:15;;;;;;;3.27;1.30;;;20.90;1.00;;;;;;5002111;28;20206;-91
2023/08/28 10:34:44;;;;;;;2.27;1.30;;;20.60;1.00;;;;;;5000418;28;20174;-89
2023/08/28 10:37:11;;;;;;;3.10;1.30;;;20.60;1.00;;;;;;5000302;28;20639;-88
2023/08/28 10:39:40;;;;;;;2.57;1.20;;;20.70;1.00;;;;;;5003603;28;20653;-89
2023/08/28 10:42:08;;;;;;;2.50;1.20;;;20.70;1.00;;;;;;5003044;28;20186;-90
2023/08/28 10:44:59;;;;;;;1.30;0.83;;;20.70;1.00;;;;;;5001366;28;20178;-86
2023/08/28 10:47:33;;;;;;;5.63;1.53;;;20.50;1.00;;;;;;5002160;28;20201;-88
2023/08/28 10:50:01;;;;;;;2.53;0.90;;;20.50;1.00;;;;;;5004646;28;20174;-88
2023/08/28 10:52:28;;;;;;;1.80;0.80;;;20.50;1.00;;;;;;5004139;28;20174;-89
2023/08/28 10:54:56;;;;;;;2.37;1.20;;;20.60;99.90;;;;;;5003610;28;20628;-87
2023/08/28 10:57:26;;;;;;;2.37;0.90;;;20.70;99.90;;;;;;5002837;28;20260;-89
2023/08/28 10:59:54;;;;;;;4.87;1.17;;;20.90;99.90;;;;;;5001936;28;20182;-88
2023/08/28 11:02:22;;;;;;;3.10;1.10;;;20.90;99.90;;;;;;5002431;28;20257;-88
2023/08/28 11:04:48;;;;;;;3.10;1.20;;;20.90;1.00;;;;;;5006852;28;20182;-90
2023/08/28 11:07:30;;;;;;;2.03;1.30;;;20.90;1.00;;;;;;5003136;28;20184;-89
2023/08/28 11:10:23;;;;;;;3.53;1.40;;;21.00;1.00;;;;;;5002606;28;20189;-89
2023/08/28 11:13:05;;;;;;;4.53;1.57;;;21.00;1.00;;;;;;5000457;28;20180;-88
2023/08/28 11:15:42;;;;;;;4.83;1.67;;;20.70;1.00;;;;;;5000519;28;20681;-86
2023/08/28 11:18:29;;;;;;;3.60;1.60;;;20.50;1.00;;;;;;5000757;28;20637;-87
2023/08/28 11:20:55;;;;;;;6.57;1.70;;;20.30;1.00;;;;;;5000215;28;20177;-88
2023/08/28 11:23:35;;;;;;;3.77;1.17;;;20.30;1.00;;;;;;5000975;28;20175;-87
2023/08/28 11:26:06;;;;;;;3.10;1.30;;;20.30;1.00;;;;;;5000318;28;20177;-87
2023/08/28 11:29:04;;;;;;;4.07;1.30;;;20.30;1.00;;;;;;4999465;28;20180;-88
2023/08/28 11:31:33;;;;;;;3.87;1.67;;;20.40;1.00;;;;;;4989217;28;20178;-88
2023/08/28 11:33:59;;;;;;;2.67;1.20;;;20.50;1.00;;;;;;4999306;28;20178;-88
2023/08/28 11:36:27;;;;;;;2.40;0.97;;;20.60;1.00;;;;;;5000905;28;20205;-88
2023/08/28 11:38:54;;;;;;;3.30;1.07;;;20.60;1.00;;;;;;5000605;28;20684;-89
2023/08/28 11:41:20;;;;;;;2.27;0.97;;;20.70;99.90;;;;;;5000781;28;20178;-89
2023/08/28 11:43:52;;;;;;;3.43;0.90;;;20.80;99.90;;;;;;5002446;28;20171;-89
2023/08/28 11:46:24;;;;;;;2.80;0.97;;;20.60;99.90;;;;;;5002362;28;20207;-89
2023/08/28 11:48:56;;;;;;;4.67;1.27;;;20.60;99.90;;;;;;5003761;28;20197;-90
2023/08/28 11:51:38;;;;;;;2.37;1.00;;;20.50;1.00;;;;;;5004358;28;20205;-89
2023/08/28 11:54:04;;;;;;;4.67;1.67;;;20.60;1.00;;;;;;5003802;28;20224;-88
2023/08/28 11:56:34;;;;;;;3.87;1.30;;;20.80;1.00;;;;;;4999745;28;20214;-88
2023/08/28 11:58:59;;;;;;;3.53;1.20;;;20.90;1.00;;;;;;5000802;28;20207;-87
2023/08/28 12:01:28;;;;;;;3.07;1.30;;;20.90;1.00;;;;;;5004181;28;20174;-87
2023/08/28 12:04:04;;;;;;;3.47;1.20;;;21.00;1.00;;;;;;5002166;28;20323;-88
2023/08/28 12:06:39;;;;;;;2.70;1.60;;;21.30;1.00;;;;;;5005468;28;20170;-88
2023/08/28 12:09:07;;;;;;;3.07;1.27;;;21.50;1.00;;;;;;5015824;28;20633;-88
2023/08/28 12:11:34;;;;;;;2.80;1.33;;;21.70;1.00;;;;;;5014157;28;20182;-89
2023/08/28 12:14:14;;;;;;;2.77;1.30;;;21.80;99.90;;;;;;5003413;28;20173;-88
2023/08/28 12:16:41;;;;;;;4.73;1.50;;;21.90;1.00;;;;;;5002929;28;20232;-88
2023/08/28 12:19:07;;;;;;;5.27;1.30;;;21.40;1.00;;;;;;5003310;28;20236;-88
2023/08/28 12:21:36;;;;;;;2.93;1.30;;;21.20;1.00;;;;;;5005080;28;20184;-87
2023/08/28 12:24:02;;;;;;;3.70;1.70;;;21.30;1.00;;;;;;5000839;28;20185;-87
2023/08/28 12:26:30;;;;;;;2.73;1.37;;;21.30;1.00;;;;;;5001210;28;20198;-86
2023/08/28 12:28:57;;;;;;;3.23;1.57;;;21.40;1.00;;;;;;5004498;28;20189;-88
2023/08/28 12:31:27;;;;;;;3.07;1.40;;;21.40;1.00;;;;;;5021486;28;20258;-88
2023/08/28 12:33:55;;;;;;;2.53;1.40;;;21.30;99.90;;;;;;5003660;28;20565;-88
2023/08/28 12:36:34;;;;;;;2.67;1.13;;;21.10;99.90;;;;;;4992042;28;20218;-87
2023/08/28 12:39:03;;;;;;;5.50;2.10;;;21.00;1.00;;;;;;5013467;28;20199;-86
2023/08/28 12:41:34;;;;;;;4.87;2.10;;;21.10;1.00;;;;;;5016245;28;20252;-86
2023/08/28 12:44:00;;;;;;;5.77;2.30;;;21.00;1.00;;;;;;5014341;28;20221;-87
2023/08/28 12:46:26;;;;;;;2.57;1.53;;;21.00;1.00;;;;;;5008197;28;20617;-87
2023/08/28 12:48:52;;;;;;;4.57;2.30;;;21.10;1.00;;;;;;5018573;28;20165;-87
2023/08/28 12:51:21;;;;;;;4.73;1.83;;;21.20;1.00;;;;;;5001716;28;20182;-89